sensor_id;sensor_type;location;lat;lon;timestamp;noise_LAeq;noise_LA_min;noise_LA_max;noise_LA01;noise_LA95
74470;Laerm;62918;55.706;37.816;2023-04-25T00:00:24;57.75;51.90;63.21;;
74470;Laerm;62918;55.706;37.816;2023-04-25T00:00:55;59.15;49.29;64.65;;
74470;Laerm;62918;55.706;37.816;2023-04-25T00:01:25;53.16;48.38;57.97;;
74470;Laerm;62918;55.706;37.816;2023-04-25T00:01:56;52.84;47.67;61.17;;
74470;Laerm;62918;55.706;37.816;2023-04-25T00:02:28;49.67;46.52;58.31;;
74470;Laerm;62918;55.706;37.816;2023-04-25T00:02:58;54.07;46.44;60.83;;
74470;Laerm;62918;55.706;37.816;2023-04-25T00:03:29;55.98;48.50;65.44;;
74470;Laerm;62918;55.706;37.816;2023-04-25T00:04:01;58.53;52.34;67.17;;
74470;Laerm;62918;55.706;37.816;2023-04-25T00:04:32;58.98;49.32;75.12;;
74470;Laerm;62918;55.706;37.816;2023-04-25T00:05:04;57.51;48.45;65.77;;
74470;Laerm;62918;55.706;37.816;2023-04-25T00:05:35;56.01;48.35;63.14;;
74470;Laerm;62918;55.706;37.816;2023-04-25T00:06:07;51.37;47.30;57.33;;
74470;Laerm;62918;55.706;37.816;2023-04-25T00:06:38;54.34;48.19;58.67;;
74470;Laerm;62918;55.706;37.816;2023-04-25T00:07:09;53.01;47.57;59.49;;
74470;Laerm;62918;55.706;37.816;2023-04-25T00:07:40;52.78;47.03;58.57;;
74470;Laerm;62918;55.706;37.816;2023-04-25T00:08:13;51.95;47.10;59.40;;
74470;Laerm;62918;55.706;37.816;2023-04-25T00:08:43;59.98;55.07;66.36;;
74470;Laerm;62918;55.706;37.816;2023-04-25T00:09:14;59.32;50.11;65.94;;
74470;Laerm;62918;55.706;37.816;2023-04-25T00:09:45;49.93;46.78;54.16;;
74470;Laerm;62918;55.706;37.816;2023-04-25T00:10:16;60.80;48.43;68.74;;
74470;Laerm;62918;55.706;37.816;2023-04-25T00:10:46;65.60;51.93;76.58;;
74470;Laerm;62918;55.706;37.816;2023-04-25T00:11:18;51.33;47.77;55.15;;
74470;Laerm;62918;55.706;37.816;2023-04-25T00:11:49;57.23;48.85;61.68;;
74470;Laerm;62918;55.706;37.816;2023-04-25T00:12:20;53.71;48.66;58.91;;
74470;Laerm;62918;55.706;37.816;2023-04-25T00:12:52;53.37;47.81;59.91;;
74470;Laerm;62918;55.706;37.816;2023-04-25T00:13:22;51.88;48.38;56.18;;
74470;Laerm;62918;55.706;37.816;2023-04-25T00:13:53;52.82;48.12;58.94;;
74470;Laerm;62918;55.706;37.816;2023-04-25T00:14:24;58.71;53.71;72.47;;
74470;Laerm;62918;55.706;37.816;2023-04-25T00:14:55;60.93;50.25;69.21;;
74470;Laerm;62918;55.706;37.816;2023-04-25T00:15:27;53.03;47.23;57.69;;
74470;Laerm;62918;55.706;37.816;2023-04-25T00:15:58;52.78;47.71;61.47;;
74470;Laerm;62918;55.706;37.816;2023-04-25T00:16:30;54.45;49.11;62.20;;
74470;Laerm;62918;55.706;37.816;2023-04-25T00:17:03;51.60;48.01;55.76;;
74470;Laerm;62918;55.706;37.816;2023-04-25T00:17:34;54.06;49.43;58.44;;
74470;Laerm;62918;55.706;37.816;2023-04-25T00:18:05;51.23;47.89;55.46;;
74470;Laerm;62918;55.706;37.816;2023-04-25T00:18:36;52.20;48.38;57.00;;
74470;Laerm;62918;55.706;37.816;2023-04-25T00:19:07;55.31;48.60;61.34;;
74470;Laerm;62918;55.706;37.816;2023-04-25T00:19:37;55.73;49.14;61.74;;
74470;Laerm;62918;55.706;37.816;2023-04-25T00:20:08;50.54;47.07;53.60;;
74470;Laerm;62918;55.706;37.816;2023-04-25T00:20:39;51.07;47.61;54.90;;
74470;Laerm;62918;55.706;37.816;2023-04-25T00:21:10;52.21;47.60;57.34;;
74470;Laerm;62918;55.706;37.816;2023-04-25T00:21:41;56.03;48.99;62.53;;
74470;Laerm;62918;55.706;37.816;2023-04-25T00:22:12;54.84;48.73;61.23;;
74470;Laerm;62918;55.706;37.816;2023-04-25T00:22:43;60.34;48.40;69.32;;
74470;Laerm;62918;55.706;37.816;2023-04-25T00:23:17;56.16;47.99;64.49;;
74470;Laerm;62918;55.706;37.816;2023-04-25T00:23:48;50.51;47.18;54.51;;
74470;Laerm;62918;55.706;37.816;2023-04-25T00:24:19;51.50;46.83;59.93;;
74470;Laerm;62918;55.706;37.816;2023-04-25T00:24:50;52.98;47.44;58.96;;
74470;Laerm;62918;55.706;37.816;2023-04-25T00:25:20;49.63;46.65;54.52;;
74470;Laerm;62918;55.706;37.816;2023-04-25T00:25:51;49.26;46.29;53.13;;
74470;Laerm;62918;55.706;37.816;2023-04-25T00:26:22;53.16;47.96;61.86;;
74470;Laerm;62918;55.706;37.816;2023-04-25T00:26:52;56.15;47.03;63.39;;
74470;Laerm;62918;55.706;37.816;2023-04-25T00:27:23;57.58;47.56;66.05;;
74470;Laerm;62918;55.706;37.816;2023-04-25T00:27:54;51.04;48.07;55.27;;
74470;Laerm;62918;55.706;37.816;2023-04-25T00:28:25;52.74;48.42;57.33;;
74470;Laerm;62918;55.706;37.816;2023-04-25T00:28:55;50.20;46.74;54.62;;
74470;Laerm;62918;55.706;37.816;2023-04-25T00:29:26;50.35;46.89;56.55;;
74470;Laerm;62918;55.706;37.816;2023-04-25T00:29:57;49.94;46.96;52.97;;
74470;Laerm;62918;55.706;37.816;2023-04-25T00:30:27;55.70;48.25;65.21;;
74470;Laerm;62918;55.706;37.816;2023-04-25T00:30:58;51.85;47.60;56.57;;
74470;Laerm;62918;55.706;37.816;2023-04-25T00:31:28;55.99;49.39;63.38;;
74470;Laerm;62918;55.706;37.816;2023-04-25T00:31:59;56.42;48.64;63.62;;
74470;Laerm;62918;55.706;37.816;2023-04-25T00:32:30;51.25;47.27;56.83;;
74470;Laerm;62918;55.706;37.816;2023-04-25T00:33:01;51.95;48.69;54.86;;
74470;Laerm;62918;55.706;37.816;2023-04-25T00:33:31;50.73;47.50;54.11;;
74470;Laerm;62918;55.706;37.816;2023-04-25T00:34:02;52.01;48.09;57.49;;
74470;Laerm;62918;55.706;37.816;2023-04-25T00:34:33;54.20;48.81;59.88;;
74470;Laerm;62918;55.706;37.816;2023-04-25T00:35:03;53.86;49.44;59.02;;
74470;Laerm;62918;55.706;37.816;2023-04-25T00:35:34;52.34;48.45;58.05;;
74470;Laerm;62918;55.706;37.816;2023-04-25T00:36:06;57.48;50.01;66.21;;
74470;Laerm;62918;55.706;37.816;2023-04-25T00:36:37;58.13;49.20;65.00;;
74470;Laerm;62918;55.706;37.816;2023-04-25T00:37:09;50.93;47.86;55.47;;
74470;Laerm;62918;55.706;37.816;2023-04-25T00:37:40;51.21;47.73;55.69;;
74470;Laerm;62918;55.706;37.816;2023-04-25T00:38:11;54.38;49.16;59.97;;
74470;Laerm;62918;55.706;37.816;2023-04-25T00:38:42;53.67;47.85;62.68;;
74470;Laerm;62918;55.706;37.816;2023-04-25T00:39:12;57.73;50.16;65.57;;
74470;Laerm;62918;55.706;37.816;2023-04-25T00:39:43;53.26;47.61;60.21;;
74470;Laerm;62918;55.706;37.816;2023-04-25T00:40:14;54.88;50.01;60.86;;
74470;Laerm;62918;55.706;37.816;2023-04-25T00:40:44;59.39;49.43;66.88;;
74470;Laerm;62918;55.706;37.816;2023-04-25T00:41:15;53.33;46.74;60.18;;
74470;Laerm;62918;55.706;37.816;2023-04-25T00:41:45;54.21;48.63;60.52;;
74470;Laerm;62918;55.706;37.816;2023-04-25T00:42:16;49.43;45.49;53.18;;
74470;Laerm;62918;55.706;37.816;2023-04-25T00:42:47;49.70;46.35;54.87;;
74470;Laerm;62918;55.706;37.816;2023-04-25T00:43:18;49.62;46.03;54.19;;
74470;Laerm;62918;55.706;37.816;2023-04-25T00:43:50;53.08;45.88;60.64;;
74470;Laerm;62918;55.706;37.816;2023-04-25T00:44:22;49.74;46.21;54.72;;
74470;Laerm;62918;55.706;37.816;2023-04-25T00:44:54;50.86;47.20;55.77;;
74470;Laerm;62918;55.706;37.816;2023-04-25T00:45:27;51.71;46.66;59.31;;
74470;Laerm;62918;55.706;37.816;2023-04-25T00:46:00;51.99;47.84;57.52;;
74470;Laerm;62918;55.706;37.816;2023-04-25T00:46:31;61.44;48.64;70.57;;
74470;Laerm;62918;55.706;37.816;2023-04-25T00:47:02;51.67;47.72;58.45;;
74470;Laerm;62918;55.706;37.816;2023-04-25T00:47:34;58.81;52.56;66.50;;
74470;Laerm;62918;55.706;37.816;2023-04-25T00:48:06;53.91;49.51;60.64;;
74470;Laerm;62918;55.706;37.816;2023-04-25T00:48:37;52.97;48.54;58.07;;
74470;Laerm;62918;55.706;37.816;2023-04-25T00:49:07;55.87;47.97;63.57;;
74470;Laerm;62918;55.706;37.816;2023-04-25T00:49:38;49.34;46.48;52.34;;
74470;Laerm;62918;55.706;37.816;2023-04-25T00:50:09;59.02;48.09;66.12;;
74470;Laerm;62918;55.706;37.816;2023-04-25T00:50:41;51.79;48.08;60.70;;
74470;Laerm;62918;55.706;37.816;2023-04-25T00:51:19;55.22;47.38;59.85;;
74470;Laerm;62918;55.706;37.816;2023-04-25T00:51:50;53.30;46.83;58.50;;
74470;Laerm;62918;55.706;37.816;2023-04-25T00:52:21;52.72;46.23;58.66;;
74470;Laerm;62918;55.706;37.816;2023-04-25T00:52:52;49.38;46.43;53.78;;
74470;Laerm;62918;55.706;37.816;2023-04-25T00:53:23;51.67;47.05;56.09;;
74470;Laerm;62918;55.706;37.816;2023-04-25T00:53:54;48.91;46.06;52.08;;
74470;Laerm;62918;55.706;37.816;2023-04-25T00:54:25;58.97;48.31;68.57;;
74470;Laerm;62918;55.706;37.816;2023-04-25T00:54:56;54.36;49.14;59.54;;
74470;Laerm;62918;55.706;37.816;2023-04-25T00:55:27;59.03;49.15;66.37;;
74470;Laerm;62918;55.706;37.816;2023-04-25T00:55:58;55.52;48.21;61.07;;
74470;Laerm;62918;55.706;37.816;2023-04-25T00:56:28;58.78;50.11;66.60;;
74470;Laerm;62918;55.706;37.816;2023-04-25T00:56:59;57.88;53.04;62.16;;
74470;Laerm;62918;55.706;37.816;2023-04-25T00:57:31;64.71;52.21;75.59;;
74470;Laerm;62918;55.706;37.816;2023-04-25T00:58:02;51.62;47.66;56.42;;
74470;Laerm;62918;55.706;37.816;2023-04-25T00:58:32;52.92;48.29;58.57;;
74470;Laerm;62918;55.706;37.816;2023-04-25T00:59:03;50.99;47.42;56.33;;
74470;Laerm;62918;55.706;37.816;2023-04-25T00:59:35;52.90;47.56;58.30;;
74470;Laerm;62918;55.706;37.816;2023-04-25T01:00:06;54.01;48.80;57.61;;
74470;Laerm;62918;55.706;37.816;2023-04-25T01:00:37;60.49;49.07;67.06;;
74470;Laerm;62918;55.706;37.816;2023-04-25T01:01:08;61.30;49.79;67.30;;
74470;Laerm;62918;55.706;37.816;2023-04-25T01:01:41;58.82;48.43;65.39;;
74470;Laerm;62918;55.706;37.816;2023-04-25T01:02:12;60.07;53.84;69.49;;
74470;Laerm;62918;55.706;37.816;2023-04-25T01:02:43;63.03;49.94;74.61;;
74470;Laerm;62918;55.706;37.816;2023-04-25T01:03:15;59.33;47.98;67.15;;
74470;Laerm;62918;55.706;37.816;2023-04-25T01:03:47;56.05;47.41;62.92;;
74470;Laerm;62918;55.706;37.816;2023-04-25T01:04:20;50.78;47.18;56.97;;
74470;Laerm;62918;55.706;37.816;2023-04-25T01:04:51;56.95;50.81;62.49;;
74470;Laerm;62918;55.706;37.816;2023-04-25T01:05:22;59.67;49.34;67.43;;
74470;Laerm;62918;55.706;37.816;2023-04-25T01:05:52;50.73;46.49;55.71;;
74470;Laerm;62918;55.706;37.816;2023-04-25T01:06:23;48.96;46.21;51.46;;
74470;Laerm;62918;55.706;37.816;2023-04-25T01:06:54;50.54;47.02;53.43;;
74470;Laerm;62918;55.706;37.816;2023-04-25T01:07:25;50.04;47.23;52.89;;
74470;Laerm;62918;55.706;37.816;2023-04-25T01:07:56;49.04;45.98;53.26;;
74470;Laerm;62918;55.706;37.816;2023-04-25T01:08:27;56.73;47.92;63.41;;
74470;Laerm;62918;55.706;37.816;2023-04-25T01:08:59;49.45;46.54;53.53;;
74470;Laerm;62918;55.706;37.816;2023-04-25T01:09:30;55.25;49.61;65.76;;
74470;Laerm;62918;55.706;37.816;2023-04-25T01:10:02;55.88;48.26;64.29;;
74470;Laerm;62918;55.706;37.816;2023-04-25T01:10:33;54.06;47.33;60.91;;
74470;Laerm;62918;55.706;37.816;2023-04-25T01:11:04;51.18;46.50;55.07;;
74470;Laerm;62918;55.706;37.816;2023-04-25T01:11:35;51.00;45.76;57.98;;
74470;Laerm;62918;55.706;37.816;2023-04-25T01:12:05;58.79;52.49;68.07;;
74470;Laerm;62918;55.706;37.816;2023-04-25T01:12:36;54.16;48.37;60.83;;
74470;Laerm;62918;55.706;37.816;2023-04-25T01:13:07;59.44;49.20;66.01;;
74470;Laerm;62918;55.706;37.816;2023-04-25T01:13:38;57.00;51.56;61.60;;
74470;Laerm;62918;55.706;37.816;2023-04-25T01:14:08;58.90;49.49;69.51;;
74470;Laerm;62918;55.706;37.816;2023-04-25T01:14:39;52.94;48.61;57.51;;
74470;Laerm;62918;55.706;37.816;2023-04-25T01:15:10;57.84;50.52;65.33;;
74470;Laerm;62918;55.706;37.816;2023-04-25T01:15:40;54.37;49.45;61.74;;
74470;Laerm;62918;55.706;37.816;2023-04-25T01:16:11;51.46;46.50;56.82;;
74470;Laerm;62918;55.706;37.816;2023-04-25T01:16:42;61.47;46.00;68.97;;
74470;Laerm;62918;55.706;37.816;2023-04-25T01:17:13;48.51;45.61;52.88;;
74470;Laerm;62918;55.706;37.816;2023-04-25T01:17:43;48.70;45.95;51.29;;
74470;Laerm;62918;55.706;37.816;2023-04-25T01:18:14;48.41;44.55;51.44;;
74470;Laerm;62918;55.706;37.816;2023-04-25T01:18:45;48.20;44.40;52.82;;
74470;Laerm;62918;55.706;37.816;2023-04-25T01:19:17;54.90;47.57;61.70;;
74470;Laerm;62918;55.706;37.816;2023-04-25T01:19:48;48.36;45.03;54.52;;
74470;Laerm;62918;55.706;37.816;2023-04-25T01:20:21;51.51;46.64;57.30;;
74470;Laerm;62918;55.706;37.816;2023-04-25T01:20:53;55.72;46.19;63.43;;
74470;Laerm;62918;55.706;37.816;2023-04-25T01:21:24;61.16;51.94;66.72;;
74470;Laerm;62918;55.706;37.816;2023-04-25T01:21:57;55.80;47.94;63.57;;
74470;Laerm;62918;55.706;37.816;2023-04-25T01:22:28;48.01;44.16;52.79;;
74470;Laerm;62918;55.706;37.816;2023-04-25T01:22:59;50.07;44.74;57.23;;
74470;Laerm;62918;55.706;37.816;2023-04-25T01:23:31;51.46;47.82;58.72;;
74470;Laerm;62918;55.706;37.816;2023-04-25T01:24:03;57.24;49.37;65.41;;
74470;Laerm;62918;55.706;37.816;2023-04-25T01:24:34;49.69;44.52;54.44;;
74470;Laerm;62918;55.706;37.816;2023-04-25T01:25:06;47.32;44.32;50.22;;
74470;Laerm;62918;55.706;37.816;2023-04-25T01:25:37;56.11;45.22;64.93;;
74470;Laerm;62918;55.706;37.816;2023-04-25T01:26:10;49.17;45.19;58.57;;
74470;Laerm;62918;55.706;37.816;2023-04-25T01:26:41;55.76;45.81;64.95;;
74470;Laerm;62918;55.706;37.816;2023-04-25T01:27:20;62.27;48.02;74.38;;
74470;Laerm;62918;55.706;37.816;2023-04-25T01:27:52;51.31;45.19;60.60;;
74470;Laerm;62918;55.706;37.816;2023-04-25T01:28:22;54.01;45.01;65.42;;
74470;Laerm;62918;55.706;37.816;2023-04-25T01:28:53;63.39;53.57;72.68;;
74470;Laerm;62918;55.706;37.816;2023-04-25T01:29:26;57.38;47.84;64.01;;
74470;Laerm;62918;55.706;37.816;2023-04-25T01:29:57;55.49;45.40;63.04;;
74470;Laerm;62918;55.706;37.816;2023-04-25T01:30:28;55.36;44.92;63.24;;
74470;Laerm;62918;55.706;37.816;2023-04-25T01:30:59;53.20;45.28;60.47;;
74470;Laerm;62918;55.706;37.816;2023-04-25T01:31:30;47.72;44.54;51.35;;
74470;Laerm;62918;55.706;37.816;2023-04-25T01:32:02;48.79;44.72;53.94;;
74470;Laerm;62918;55.706;37.816;2023-04-25T01:32:34;50.73;44.65;59.66;;
74470;Laerm;62918;55.706;37.816;2023-04-25T01:33:09;48.93;44.45;56.27;;
74470;Laerm;62918;55.706;37.816;2023-04-25T01:33:40;48.60;44.53;53.47;;
74470;Laerm;62918;55.706;37.816;2023-04-25T01:34:11;52.18;44.82;58.26;;
74470;Laerm;62918;55.706;37.816;2023-04-25T01:34:42;52.68;44.14;60.57;;
74470;Laerm;62918;55.706;37.816;2023-04-25T01:35:12;53.16;46.24;58.97;;
74470;Laerm;62918;55.706;37.816;2023-04-25T01:35:43;51.22;46.33;57.59;;
74470;Laerm;62918;55.706;37.816;2023-04-25T01:36:14;55.91;49.27;62.34;;
74470;Laerm;62918;55.706;37.816;2023-04-25T01:36:48;49.53;45.44;52.87;;
74470;Laerm;62918;55.706;37.816;2023-04-25T01:37:19;50.41;45.66;57.37;;
74470;Laerm;62918;55.706;37.816;2023-04-25T01:37:51;51.99;47.49;58.55;;
74470;Laerm;62918;55.706;37.816;2023-04-25T01:38:21;55.47;47.34;65.19;;
74470;Laerm;62918;55.706;37.816;2023-04-25T01:38:52;59.07;47.48;65.51;;
74470;Laerm;62918;55.706;37.816;2023-04-25T01:39:23;59.93;46.94;73.58;;
74470;Laerm;62918;55.706;37.816;2023-04-25T01:39:54;49.26;45.54;52.40;;
74470;Laerm;62918;55.706;37.816;2023-04-25T01:40:24;49.62;44.18;54.80;;
74470;Laerm;62918;55.706;37.816;2023-04-25T01:40:56;52.86;44.57;62.26;;
74470;Laerm;62918;55.706;37.816;2023-04-25T01:41:27;61.28;50.89;67.69;;
74470;Laerm;62918;55.706;37.816;2023-04-25T01:41:58;55.85;45.72;64.02;;
74470;Laerm;62918;55.706;37.816;2023-04-25T01:42:29;53.71;46.02;61.89;;
74470;Laerm;62918;55.706;37.816;2023-04-25T01:43:00;50.61;47.20;59.61;;
74470;Laerm;62918;55.706;37.816;2023-04-25T01:43:31;64.66;53.11;70.88;;
74470;Laerm;62918;55.706;37.816;2023-04-25T01:44:02;62.40;49.32;68.95;;
74470;Laerm;62918;55.706;37.816;2023-04-25T01:44:33;55.81;48.86;62.59;;
74470;Laerm;62918;55.706;37.816;2023-04-25T01:45:04;59.32;47.07;70.11;;
74470;Laerm;62918;55.706;37.816;2023-04-25T01:45:38;60.12;45.32;72.90;;
74470;Laerm;62918;55.706;37.816;2023-04-25T01:46:12;49.12;44.65;56.19;;
74470;Laerm;62918;55.706;37.816;2023-04-25T01:46:43;48.55;43.90;57.24;;
74470;Laerm;62918;55.706;37.816;2023-04-25T01:47:14;46.64;44.10;48.51;;
74470;Laerm;62918;55.706;37.816;2023-04-25T01:47:44;49.15;44.30;54.86;;
74470;Laerm;62918;55.706;37.816;2023-04-25T01:48:19;50.30;45.28;55.60;;
74470;Laerm;62918;55.706;37.816;2023-04-25T01:48:49;57.81;47.14;64.59;;
74470;Laerm;62918;55.706;37.816;2023-04-25T01:49:20;55.37;47.52;60.53;;
74470;Laerm;62918;55.706;37.816;2023-04-25T01:49:51;54.77;44.47;69.28;;
74470;Laerm;62918;55.706;37.816;2023-04-25T01:50:21;50.57;43.40;56.64;;
74470;Laerm;62918;55.706;37.816;2023-04-25T01:50:52;54.26;43.36;76.96;;
74470;Laerm;62918;55.706;37.816;2023-04-25T01:51:23;56.35;45.66;63.42;;
74470;Laerm;62918;55.706;37.816;2023-04-25T01:51:53;49.67;45.42;58.70;;
74470;Laerm;62918;55.706;37.816;2023-04-25T01:52:24;50.08;45.36;63.61;;
74470;Laerm;62918;55.706;37.816;2023-04-25T01:52:55;55.14;43.89;63.58;;
74470;Laerm;62918;55.706;37.816;2023-04-25T01:53:25;51.78;45.16;56.88;;
74470;Laerm;62918;55.706;37.816;2023-04-25T01:53:57;58.63;46.58;67.14;;
74470;Laerm;62918;55.706;37.816;2023-04-25T01:54:27;63.21;52.46;73.63;;
74470;Laerm;62918;55.706;37.816;2023-04-25T01:55:01;57.16;53.04;65.94;;
74470;Laerm;62918;55.706;37.816;2023-04-25T01:55:35;66.08;45.41;77.02;;
74470;Laerm;62918;55.706;37.816;2023-04-25T01:56:06;56.63;47.92;60.65;;
74470;Laerm;62918;55.706;37.816;2023-04-25T01:56:37;50.70;43.57;56.63;;
74470;Laerm;62918;55.706;37.816;2023-04-25T01:57:08;58.83;48.57;64.99;;
74470;Laerm;62918;55.706;37.816;2023-04-25T01:57:39;55.76;50.94;61.56;;
74470;Laerm;62918;55.706;37.816;2023-04-25T01:58:09;57.74;51.79;65.47;;
74470;Laerm;62918;55.706;37.816;2023-04-25T01:58:43;59.10;54.07;64.90;;
74470;Laerm;62918;55.706;37.816;2023-04-25T01:59:13;58.10;47.33;66.50;;
74470;Laerm;62918;55.706;37.816;2023-04-25T01:59:44;53.03;49.58;61.88;;
74470;Laerm;62918;55.706;37.816;2023-04-25T02:00:15;57.23;49.80;63.69;;
74470;Laerm;62918;55.706;37.816;2023-04-25T02:00:46;52.44;48.92;60.82;;
74470;Laerm;62918;55.706;37.816;2023-04-25T02:01:17;64.68;53.22;71.27;;
74470;Laerm;62918;55.706;37.816;2023-04-25T02:01:48;54.95;51.44;58.53;;
74470;Laerm;62918;55.706;37.816;2023-04-25T02:02:18;53.81;48.21;65.27;;
74470;Laerm;62918;55.706;37.816;2023-04-25T02:02:49;49.90;47.64;55.36;;
74470;Laerm;62918;55.706;37.816;2023-04-25T02:03:20;58.92;48.34;66.41;;
74470;Laerm;62918;55.706;37.816;2023-04-25T02:03:51;60.12;50.92;70.05;;
74470;Laerm;62918;55.706;37.816;2023-04-25T02:04:22;60.40;48.09;67.48;;
74470;Laerm;62918;55.706;37.816;2023-04-25T02:04:52;50.08;46.88;70.21;;
74470;Laerm;62918;55.706;37.816;2023-04-25T02:05:24;50.08;46.42;55.84;;
74470;Laerm;62918;55.706;37.816;2023-04-25T02:05:55;58.75;48.11;69.76;;
74470;Laerm;62918;55.706;37.816;2023-04-25T02:06:25;57.31;50.90;66.71;;
74470;Laerm;62918;55.706;37.816;2023-04-25T02:06:56;61.32;54.19;74.64;;
74470;Laerm;62918;55.706;37.816;2023-04-25T02:07:26;56.82;49.10;64.30;;
74470;Laerm;62918;55.706;37.816;2023-04-25T02:07:57;56.78;53.92;60.11;;
74470;Laerm;62918;55.706;37.816;2023-04-25T02:08:28;62.12;52.18;67.88;;
74470;Laerm;62918;55.706;37.816;2023-04-25T02:08:58;61.97;51.07;68.23;;
74470;Laerm;62918;55.706;37.816;2023-04-25T02:09:29;58.35;51.93;63.16;;
74470;Laerm;62918;55.706;37.816;2023-04-25T02:10:00;56.75;50.10;73.29;;
74470;Laerm;62918;55.706;37.816;2023-04-25T02:10:31;66.25;50.79;75.09;;
74470;Laerm;62918;55.706;37.816;2023-04-25T02:11:01;56.34;47.04;68.04;;
74470;Laerm;62918;55.706;37.816;2023-04-25T02:11:33;55.30;47.30;67.73;;
74470;Laerm;62918;55.706;37.816;2023-04-25T02:12:04;61.56;47.36;70.48;;
74470;Laerm;62918;55.706;37.816;2023-04-25T02:12:35;55.98;48.81;63.65;;
74470;Laerm;62918;55.706;37.816;2023-04-25T02:13:06;53.32;48.45;59.43;;
74470;Laerm;62918;55.706;37.816;2023-04-25T02:13:36;57.71;48.68;65.96;;
74470;Laerm;62918;55.706;37.816;2023-04-25T02:14:08;60.44;51.39;67.96;;
74470;Laerm;62918;55.706;37.816;2023-04-25T02:14:38;56.81;51.31;62.19;;
74470;Laerm;62918;55.706;37.816;2023-04-25T02:15:09;54.37;50.15;66.93;;
74470;Laerm;62918;55.706;37.816;2023-04-25T02:15:40;55.91;51.77;61.92;;
74470;Laerm;62918;55.706;37.816;2023-04-25T02:16:31;55.73;51.30;60.94;;
74470;Laerm;62918;55.706;37.816;2023-04-25T02:17:02;60.40;50.76;70.63;;
74470;Laerm;62918;55.706;37.816;2023-04-25T02:17:33;61.55;52.75;67.69;;
74470;Laerm;62918;55.706;37.816;2023-04-25T02:18:03;56.85;52.40;61.86;;
74470;Laerm;62918;55.706;37.816;2023-04-25T02:18:34;54.44;50.44;59.14;;
74470;Laerm;62918;55.706;37.816;2023-04-25T02:19:07;59.26;53.01;65.67;;
74470;Laerm;62918;55.706;37.816;2023-04-25T02:19:38;58.84;53.69;67.30;;
74470;Laerm;62918;55.706;37.816;2023-04-25T02:20:09;59.20;49.90;68.32;;
74470;Laerm;62918;55.706;37.816;2023-04-25T02:20:40;53.73;49.59;70.10;;
74470;Laerm;62918;55.706;37.816;2023-04-25T02:21:10;58.39;53.86;62.45;;
74470;Laerm;62918;55.706;37.816;2023-04-25T02:21:41;60.18;50.88;68.50;;
74470;Laerm;62918;55.706;37.816;2023-04-25T02:22:12;53.08;49.53;59.16;;
74470;Laerm;62918;55.706;37.816;2023-04-25T02:22:43;59.16;50.42;64.03;;
74470;Laerm;62918;55.706;37.816;2023-04-25T02:23:14;58.87;55.10;67.23;;
74470;Laerm;62918;55.706;37.816;2023-04-25T02:23:45;61.22;56.17;66.24;;
74470;Laerm;62918;55.706;37.816;2023-04-25T02:24:19;62.92;55.33;67.08;;
74470;Laerm;62918;55.706;37.816;2023-04-25T02:24:49;57.98;52.60;65.81;;
74470;Laerm;62918;55.706;37.816;2023-04-25T02:25:20;57.09;52.87;64.68;;
74470;Laerm;62918;55.706;37.816;2023-04-25T02:25:51;62.16;55.04;67.04;;
74470;Laerm;62918;55.706;37.816;2023-04-25T02:26:22;55.89;50.59;62.82;;
74470;Laerm;62918;55.706;37.816;2023-04-25T02:26:53;57.88;51.33;64.47;;
74470;Laerm;62918;55.706;37.816;2023-04-25T02:27:26;54.89;49.79;64.05;;
74470;Laerm;62918;55.706;37.816;2023-04-25T02:27:56;57.47;51.99;62.06;;
74470;Laerm;62918;55.706;37.816;2023-04-25T02:28:27;51.02;48.10;54.48;;
74470;Laerm;62918;55.706;37.816;2023-04-25T02:28:57;56.04;47.61;65.43;;
74470;Laerm;62918;55.706;37.816;2023-04-25T02:29:29;55.67;51.58;60.54;;
74470;Laerm;62918;55.706;37.816;2023-04-25T02:30:00;59.99;52.10;66.31;;
74470;Laerm;62918;55.706;37.816;2023-04-25T02:30:30;57.90;53.96;65.65;;
74470;Laerm;62918;55.706;37.816;2023-04-25T02:31:01;56.10;52.67;61.61;;
74470;Laerm;62918;55.706;37.816;2023-04-25T02:31:32;60.20;53.23;65.19;;
74470;Laerm;62918;55.706;37.816;2023-04-25T02:32:03;56.77;51.78;61.60;;
74470;Laerm;62918;55.706;37.816;2023-04-25T02:32:33;56.22;51.84;66.41;;
74470;Laerm;62918;55.706;37.816;2023-04-25T02:33:04;58.67;53.42;70.53;;
74470;Laerm;62918;55.706;37.816;2023-04-25T02:33:35;58.52;53.27;70.05;;
74470;Laerm;62918;55.706;37.816;2023-04-25T02:34:06;58.71;54.76;62.86;;
74470;Laerm;62918;55.706;37.816;2023-04-25T02:34:36;59.91;55.71;64.46;;
74470;Laerm;62918;55.706;37.816;2023-04-25T02:35:08;62.73;56.42;69.59;;
74470;Laerm;62918;55.706;37.816;2023-04-25T02:35:39;61.17;55.30;73.76;;
74470;Laerm;62918;55.706;37.816;2023-04-25T02:36:09;62.36;55.49;69.21;;
74470;Laerm;62918;55.706;37.816;2023-04-25T02:36:40;61.39;56.21;70.16;;
74470;Laerm;62918;55.706;37.816;2023-04-25T02:37:11;63.80;57.05;75.58;;
74470;Laerm;62918;55.706;37.816;2023-04-25T02:37:42;60.51;55.93;64.41;;
74470;Laerm;62918;55.706;37.816;2023-04-25T02:38:12;60.12;54.83;65.14;;
74470;Laerm;62918;55.706;37.816;2023-04-25T02:38:43;61.05;56.09;66.05;;
74470;Laerm;62918;55.706;37.816;2023-04-25T02:39:13;63.20;54.89;69.03;;
74470;Laerm;62918;55.706;37.816;2023-04-25T02:39:44;58.17;54.45;61.42;;
74470;Laerm;62918;55.706;37.816;2023-04-25T02:40:15;59.37;54.43;63.00;;
74470;Laerm;62918;55.706;37.816;2023-04-25T02:40:45;58.00;53.54;63.37;;
74470;Laerm;62918;55.706;37.816;2023-04-25T02:41:16;58.20;53.24;64.54;;
74470;Laerm;62918;55.706;37.816;2023-04-25T02:41:46;56.64;52.75;60.96;;
74470;Laerm;62918;55.706;37.816;2023-04-25T02:42:17;62.84;55.97;70.15;;
74470;Laerm;62918;55.706;37.816;2023-04-25T02:42:48;61.30;55.50;66.15;;
74470;Laerm;62918;55.706;37.816;2023-04-25T02:43:18;64.67;59.79;69.54;;
74470;Laerm;62918;55.706;37.816;2023-04-25T02:43:49;61.17;55.50;66.81;;
74470;Laerm;62918;55.706;37.816;2023-04-25T02:44:19;57.41;53.51;61.59;;
74470;Laerm;62918;55.706;37.816;2023-04-25T02:44:50;59.37;54.94;66.22;;
74470;Laerm;62918;55.706;37.816;2023-04-25T02:45:21;60.29;56.12;63.28;;
74470;Laerm;62918;55.706;37.816;2023-04-25T02:45:51;60.87;55.50;66.42;;
74470;Laerm;62918;55.706;37.816;2023-04-25T02:46:22;60.41;55.63;67.53;;
74470;Laerm;62918;55.706;37.816;2023-04-25T02:46:53;61.53;56.59;70.61;;
74470;Laerm;62918;55.706;37.816;2023-04-25T02:47:23;60.81;55.47;66.34;;
74470;Laerm;62918;55.706;37.816;2023-04-25T02:47:54;62.25;55.09;67.70;;
74470;Laerm;62918;55.706;37.816;2023-04-25T02:48:25;60.24;54.75;67.76;;
74470;Laerm;62918;55.706;37.816;2023-04-25T02:48:55;57.22;52.84;61.83;;
74470;Laerm;62918;55.706;37.816;2023-04-25T02:49:26;60.26;55.61;66.08;;
74470;Laerm;62918;55.706;37.816;2023-04-25T02:49:57;63.93;55.32;69.39;;
74470;Laerm;62918;55.706;37.816;2023-04-25T02:50:27;59.50;52.77;66.71;;
74470;Laerm;62918;55.706;37.816;2023-04-25T02:50:58;62.93;55.86;68.21;;
74470;Laerm;62918;55.706;37.816;2023-04-25T02:51:28;66.30;54.63;77.54;;
74470;Laerm;62918;55.706;37.816;2023-04-25T02:51:59;62.75;56.52;68.16;;